Track Гетманский Сергей

Time Latitude Longitude Accuracy (66% radius in meters) Altitude (meters) Speed (km/hour) Bearing (degrees) Battery (%) GPS flag
13:34:06 56.387668 43.737258 5.8000001907349 103.3 0 77.370002746582 52 1 delete
13:34:04 56.387677 43.737140 6 103.6 0 61.360000610352 52 1 delete
13:34:01 56.387693 43.736967 5.8000001907349 104.1 0 306.32998657227 52 1 delete
13:33:55 56.387687 43.736917 4.9000000953674 104.3 1.3048207759857 306.32998657227 52 1 delete
13:33:49 56.387703 43.736805 5.0999999046326 106.2 0 313.08999633789 52 1 delete
13:33:43 56.387605 43.736853 4.9000000953674 106.3 0 131.02000427246 52 1 delete
13:33:37 56.387583 43.736763 5.1999998092651 107.8 0 289.23999023438 52 1 delete
13:33:33 56.387540 43.736910 4.5999999046326 107.5 0 150.9700012207 52 1 delete
13:33:25 56.387532 43.736947 4.4000000953674 107.8 0 204.66000366211 52 1 delete
13:33:21 56.387495 43.736972 4.5999999046326 108 0 222.08999633789 52 1 delete
13:33:17 56.387440 43.736982 4.8000001907349 108.5 0 222.08999633789 52 1 delete
13:33:11 56.387557 43.737018 4.5999999046326 108.5 0.05456055700779 273.82998657227 52 1 delete
13:33:06 56.387533 43.737012 4.8000001907349 108.3 0 228.39999389648 52 1 delete
13:33:01 56.387642 43.737152 4.5 108 0 195.53999328613 52 1 delete
13:32:59 56.387610 43.737138 4.5999999046326 107.7 0 195.53999328613 52 1 delete
13:32:49 56.387570 43.737142 4.4000000953674 105.8 0 164.55000305176 52 1 delete
13:32:37 56.387595 43.737100 3.9000000953674 105.5 0 170.58000183105 52 1 delete
13:32:27 56.387562 43.737072 3.7999999523163 108.6 0 189.19999694824 52 1 delete
13:32:15 56.387552 43.737115 3.7000000476837 108.8 0 169.30999755859 52 1 delete
13:32:05 56.387545 43.737105 3.7999999523163 108.9 0 172.75 52 1 delete
13:31:54 56.387595 43.737113 4 109.4 0 182.11000061035 52 1 delete
13:31:43 56.387588 43.737112 4.0999999046326 109.8 0 7.1500000953674 52 1 delete
13:31:37 56.387533 43.737087 4.1999998092651 109.4 0 183.42999267578 52 1 delete
13:31:31 56.387607 43.737125 4.0999999046326 109.2 0 168.7200012207 52 1 delete
13:31:23 56.387627 43.737118 4.1999998092651 108.9 0 200.07000732422 52 1 delete
13:31:21 56.387620 43.737088 4.1999998092651 108.9 0 200.07000732422 52 1 delete
13:31:09 56.387592 43.737017 4.3000001907349 108.2 0 218.53999328613 52 1 delete
13:30:59 56.387560 43.737017 4.3000001907349 107.6 0 196.69000244141 52 1 delete
13:30:47 56.387598 43.736918 4.3000001907349 106.8 0 318.69000244141 52 1 delete
13:30:43 56.387577 43.736947 4.5 106.6 0 211.86000061035 52 1 delete
13:30:37 56.387675 43.737070 4.6999998092651 106.5 0 10.109999656677 52 1 delete
13:30:25 56.387688 43.736997 4.8000001907349 106.7 0 340.57998657227 52 1 delete
13:30:15 56.387697 43.737078 4.8000001907349 107.4 0 349.10998535156 52 1 delete
13:30:13 56.387680 43.737073 5.0999999046326 107.5 5.3860535621643 359.70001220703 52 1 delete
13:30:09 56.387533 43.737097 5.5999999046326 107.6 0 73.51000213623 52 1 delete
13:30:04 56.387523 43.737095 5.0999999046326 107.7 0 73.51000213623 52 1 delete
13:29:59 56.387482 43.736955 4.8000001907349 107.8 0 214.0299987793 52 1 delete
13:29:53 56.387507 43.736985 4.5999999046326 107.6 0 219.52000427246 52 1 delete
13:29:43 56.387577 43.737103 4.5999999046326 107.4 0 36.959999084473 52 1 delete
13:29:31 56.387528 43.737037 5.0999999046326 107.3 0 201.38000488281 52 1 delete
13:29:21 56.387560 43.737045 4.8000001907349 107.1 0 189.63999938965 52 1 delete
13:29:12 56.387563 43.737028 4.5999999046326 108 0 181.46000671387 52 1 delete
13:29:09 56.387570 43.736973 4.5999999046326 108.3 0 186.86000061035 52 1 delete
13:29:01 56.387633 43.736925 4.3000001907349 109.1 0 209.36000061035 52 1 delete
13:28:59 56.387627 43.736913 4.3000001907349 109.3 0 336.67999267578 52 1 delete
13:28:47 56.387558 43.736973 4.3000001907349 110.3 0 202.07000732422 55 1 delete
13:28:43 56.387557 43.737010 4.4000000953674 110.5 0 225.80000305176 55 1 delete
13:28:37 56.387660 43.737082 4.3000001907349 110.5 0 143.94999694824 55 1 delete
13:28:25 56.387678 43.737058 4.5 111.5 0 21.10000038147 55 1 delete
13:28:15 56.387640 43.737068 4.9000000953674 111.9 0 52.689998626709 55 1 delete